Time;durP1;ratioP1;P1;durP2;ratioP2;P2;SDS_P1;SDS_P2;PMS_P1;PMS_P2;Temp;Humidity;BMP_temperature;BMP_pressure;BME280_temperature;BME280_humidity;BME280_pressure;Samples;Min_cycle;Max_cycle;Signal;HPM_P1;HPM_P2
2021/12/26 00:01:16;;;;;;;5.00;4.10;;;2.60;99.90;;;;;;5111943;28;20204;-53
2021/12/26 00:03:42;;;;;;;7.95;5.78;;;2.60;99.90;;;;;;5102268;28;20187;-53
2021/12/26 00:06:12;;;;;;;10.77;6.55;;;2.60;99.90;;;;;;5112636;28;20177;-52
2021/12/26 00:08:40;;;;;;;7.45;5.30;;;2.50;99.90;;;;;;5111997;28;20219;-53
2021/12/26 00:11:06;;;;;;;5.18;4.13;;;2.70;99.90;;;;;;5111789;28;20702;-52
2021/12/26 00:13:33;;;;;;;5.53;4.13;;;2.70;99.90;;;;;;5105844;28;20232;-53
2021/12/26 00:15:59;;;;;;;6.53;4.78;;;2.60;99.90;;;;;;5094864;28;20248;-54
2021/12/26 00:18:26;;;;;;;4.80;3.95;;;2.70;99.90;;;;;;5113695;28;20172;-53
2021/12/26 00:20:51;;;;;;;5.97;3.95;;;2.60;99.90;;;;;;5104629;28;20177;-53
2021/12/26 00:23:17;;;;;;;4.35;3.95;;;2.50;99.90;;;;;;5108790;28;20196;-54
2021/12/26 00:25:44;;;;;;;7.55;4.57;;;2.60;99.90;;;;;;5111213;28;20212;-53
2021/12/26 00:28:11;;;;;;;4.28;3.60;;;2.70;99.90;;;;;;5074765;28;20169;-53
2021/12/26 00:30:36;;;;;;;4.78;3.53;;;2.60;99.90;;;;;;5092991;28;20165;-53
2021/12/26 00:33:02;;;;;;;4.63;3.75;;;2.60;99.90;;;;;;5092858;28;20652;-53
2021/12/26 00:35:28;;;;;;;4.93;3.85;;;2.60;99.90;;;;;;5105489;28;20241;-54
2021/12/26 00:37:54;;;;;;;3.88;3.28;;;2.50;99.90;;;;;;5093096;28;20582;-53
2021/12/26 00:40:22;;;;;;;5.60;3.92;;;2.60;99.90;;;;;;5092633;28;20199;-53
2021/12/26 00:42:49;;;;;;;4.53;3.55;;;2.60;99.90;;;;;;5092792;28;20173;-53
2021/12/26 00:45:15;;;;;;;4.30;3.72;;;2.60;99.90;;;;;;5092973;28;20260;-53
2021/12/26 00:47:41;;;;;;;5.38;4.30;;;2.60;99.90;;;;;;5092491;28;20200;-54
2021/12/26 00:50:10;;;;;;;7.50;3.38;;;2.50;99.90;;;;;;5092082;28;20298;-52
2021/12/26 00:52:36;;;;;;;5.90;4.93;;;2.60;99.90;;;;;;5092550;28;20625;-53
2021/12/26 00:55:04;;;;;;;6.55;4.15;;;2.50;99.90;;;;;;5092584;28;20162;-54
2021/12/26 00:57:30;;;;;;;9.00;5.30;;;2.60;99.90;;;;;;5092846;28;20211;-52
2021/12/26 00:59:55;;;;;;;10.27;4.68;;;2.60;99.90;;;;;;5092721;28;20209;-53
2021/12/26 01:02:21;;;;;;;11.77;5.38;;;2.60;99.90;;;;;;5092280;28;20170;-53
2021/12/26 01:04:47;;;;;;;12.25;5.50;;;2.60;99.90;;;;;;5092546;28;20169;-53
2021/12/26 01:07:25;;;;;;;10.65;5.90;;;2.60;99.90;;;;;;5092068;28;20616;-51
2021/12/26 01:09:52;;;;;;;9.82;4.82;;;2.60;99.90;;;;;;5092264;28;20651;-53
2021/12/26 01:12:19;;;;;;;6.57;4.47;;;2.60;99.90;;;;;;5092026;28;20221;-53
2021/12/26 01:14:53;;;;;;;4.38;3.58;;;2.50;99.90;;;;;;5097300;28;20168;-53
2021/12/26 01:17:22;;;;;;;4.28;3.47;;;2.50;99.90;;;;;;5112374;28;20168;-53
2021/12/26 01:19:51;;;;;;;4.82;3.47;;;2.60;99.90;;;;;;5112565;28;20212;-52
2021/12/26 01:22:18;;;;;;;6.40;3.78;;;2.50;99.90;;;;;;5112606;28;20259;-52
2021/12/26 01:24:45;;;;;;;5.43;4.03;;;2.50;99.90;;;;;;5112275;28;20177;-52
2021/12/26 01:27:17;;;;;;;4.50;3.92;;;2.50;99.90;;;;;;5112191;28;20175;-52
2021/12/26 01:29:47;;;;;;;4.50;3.67;;;2.50;99.90;;;;;;5112453;28;20161;-52
2021/12/26 01:32:17;;;;;;;5.90;4.15;;;2.50;99.90;;;;;;5112326;28;20514;-52
2021/12/26 01:34:44;;;;;;;6.03;4.15;;;2.50;99.90;;;;;;5112095;28;20179;-53
2021/12/26 01:37:10;;;;;;;6.72;4.40;;;2.50;99.90;;;;;;5112162;28;20164;-52
2021/12/26 01:39:36;;;;;;;4.88;4.38;;;2.60;99.90;;;;;;5112094;28;20204;-52
2021/12/26 01:42:03;;;;;;;5.00;4.05;;;2.50;99.90;;;;;;5111997;28;20532;-52
2021/12/26 01:44:30;;;;;;;6.63;4.57;;;2.60;99.90;;;;;;5110838;28;20192;-53
2021/12/26 01:46:56;;;;;;;5.22;3.58;;;2.60;99.90;;;;;;5101084;28;20167;-53
2021/12/26 01:49:27;;;;;;;5.40;4.10;;;2.50;99.90;;;;;;5112158;28;20240;-53
2021/12/26 01:51:55;;;;;;;6.65;4.03;;;2.50;99.90;;;;;;5112085;28;20156;-52
2021/12/26 01:54:38;;;;;;;6.03;4.57;;;2.60;99.90;;;;;;5111991;28;20156;-53
2021/12/26 01:57:09;;;;;;;7.93;4.47;;;2.60;99.90;;;;;;5111917;28;20640;-52
2021/12/26 01:59:35;;;;;;;5.72;4.22;;;2.60;99.90;;;;;;5094123;28;20240;-53
2021/12/26 02:02:01;;;;;;;5.35;4.47;;;2.50;99.90;;;;;;5115295;28;20164;-53
2021/12/26 02:04:28;;;;;;;5.55;4.47;;;2.50;99.90;;;;;;5116750;28;20173;-53
2021/12/26 02:06:55;;;;;;;6.07;4.63;;;2.50;99.90;;;;;;5116491;28;20251;-53
2021/12/26 02:09:21;;;;;;;6.25;4.63;;;2.60;99.90;;;;;;5115689;28;20244;-53
2021/12/26 02:11:47;;;;;;;5.57;4.03;;;2.60;99.90;;;;;;5113899;28;20295;-53
2021/12/26 02:14:12;;;;;;;4.38;3.97;;;2.60;99.90;;;;;;5113688;28;20173;-52
2021/12/26 02:16:38;;;;;;;5.35;4.32;;;2.60;99.90;;;;;;5092239;28;20170;-53
2021/12/26 02:19:04;;;;;;;5.35;4.63;;;2.60;99.90;;;;;;5107585;28;20188;-53
2021/12/26 02:22:19;;;;;;;4.82;4.30;;;2.60;99.90;;;;;;5086515;28;20640;-52
2021/12/26 02:24:22;;;;;;;5.60;4.15;;;2.70;99.90;;;;;;5085536;28;20185;-52
2021/12/26 02:29:32;;;;;;;7.13;4.65;;;2.70;99.90;;;;;;5114622;28;20178;-53
2021/12/26 02:31:57;;;;;;;6.03;4.75;;;2.60;99.90;;;;;;5114965;28;20181;-55
2021/12/26 02:34:23;;;;;;;6.72;4.93;;;2.60;99.90;;;;;;5115237;28;20204;-55
2021/12/26 02:36:48;;;;;;;5.43;4.40;;;2.60;99.90;;;;;;5115248;28;20183;-54
2021/12/26 02:39:15;;;;;;;7.80;4.82;;;2.60;99.90;;;;;;5101176;28;20274;-54
2021/12/26 02:41:42;;;;;;;6.55;5.00;;;2.60;99.90;;;;;;5107473;28;20161;-54
2021/12/26 02:44:08;;;;;;;4.53;3.63;;;2.60;99.90;;;;;;5094869;28;20248;-55
2021/12/26 02:46:34;;;;;;;5.18;4.47;;;2.60;99.90;;;;;;5102895;28;20576;-54
2021/12/26 02:48:59;;;;;;;6.30;5.03;;;2.60;99.90;;;;;;5115519;28;20698;-55
2021/12/26 02:51:25;;;;;;;7.07;4.78;;;2.60;99.90;;;;;;5115418;28;20191;-53
2021/12/26 02:53:50;;;;;;;5.65;4.65;;;2.60;99.90;;;;;;5115433;28;20681;-53
2021/12/26 02:56:16;;;;;;;7.15;5.20;;;2.60;99.90;;;;;;5115214;28;20196;-54
2021/12/26 02:58:42;;;;;;;7.97;5.45;;;2.60;99.90;;;;;;5107309;28;20204;-54
2021/12/26 03:01:14;;;;;;;7.05;5.13;;;2.60;99.90;;;;;;5094759;28;20173;-53
2021/12/26 03:03:39;;;;;;;8.13;5.13;;;2.60;99.90;;;;;;5094942;28;20161;-53
2021/12/26 03:06:15;;;;;;;6.75;4.78;;;2.60;99.90;;;;;;5094623;28;20226;-53
2021/12/26 03:08:42;;;;;;;7.57;5.45;;;2.70;99.90;;;;;;5094786;28;20265;-53
2021/12/26 03:11:07;;;;;;;6.97;5.45;;;2.60;99.90;;;;;;5094135;28;20221;-51
2021/12/26 03:13:34;;;;;;;8.40;5.45;;;2.60;99.90;;;;;;5098377;28;20688;-51
2021/12/26 03:15:59;;;;;;;7.00;5.38;;;2.70;99.90;;;;;;5108382;28;20165;-52
2021/12/26 03:18:25;;;;;;;7.22;5.72;;;2.70;99.90;;;;;;5097135;28;20178;-51
2021/12/26 03:20:51;;;;;;;8.23;5.53;;;2.70;99.90;;;;;;5100912;28;20181;-50
2021/12/26 03:23:21;;;;;;;7.07;5.45;;;2.70;99.90;;;;;;5113622;28;20179;-51
2021/12/26 03:25:46;;;;;;;7.40;5.00;;;2.70;99.90;;;;;;5110425;28;20173;-50
2021/12/26 03:28:13;;;;;;;7.95;5.68;;;2.70;99.90;;;;;;5114191;28;20179;-51
2021/12/26 03:30:39;;;;;;;8.45;5.82;;;2.70;99.90;;;;;;5101944;28;20217;-52
2021/12/26 03:33:07;;;;;;;7.75;5.38;;;2.80;99.90;;;;;;5112348;28;20169;-52
2021/12/26 03:35:34;;;;;;;8.32;5.50;;;2.80;99.90;;;;;;5099159;28;20165;-52
2021/12/26 03:38:01;;;;;;;8.02;5.65;;;2.80;99.90;;;;;;5106088;28;20166;-51
2021/12/26 03:40:26;;;;;;;11.35;5.90;;;2.80;99.90;;;;;;5095270;28;20266;-50
2021/12/26 03:42:53;;;;;;;9.30;6.10;;;2.80;99.90;;;;;;5086079;28;20174;-53
2021/12/26 03:45:19;;;;;;;7.65;5.90;;;2.80;99.90;;;;;;5108388;28;20176;-54
2021/12/26 03:47:49;;;;;;;9.82;5.82;;;2.80;99.90;;;;;;5110315;28;20168;-54
2021/12/26 03:50:16;;;;;;;8.43;5.72;;;2.80;99.90;;;;;;5110660;28;20161;-54
2021/12/26 03:52:41;;;;;;;8.00;6.03;;;2.90;99.90;;;;;;5102783;28;20190;-53
2021/12/26 03:55:07;;;;;;;7.90;6.28;;;2.80;99.90;;;;;;5104438;28;20645;-54
2021/12/26 03:57:33;;;;;;;9.00;6.07;;;2.80;99.90;;;;;;5110371;28;20176;-54
2021/12/26 03:59:59;;;;;;;9.02;6.32;;;2.90;99.90;;;;;;5110929;28;20201;-55
2021/12/26 04:02:26;;;;;;;8.65;6.55;;;2.80;99.90;;;;;;5093474;28;20173;-54
2021/12/26 04:04:51;;;;;;;9.15;6.00;;;2.90;99.90;;;;;;5093532;28;20184;-55
2021/12/26 04:07:17;;;;;;;9.70;6.35;;;2.80;99.90;;;;;;5093305;28;20162;-55
2021/12/26 04:09:43;;;;;;;7.70;5.60;;;2.80;99.90;;;;;;5093317;28;20566;-54
2021/12/26 04:12:09;;;;;;;11.13;6.72;;;2.90;99.90;;;;;;5096134;28;20217;-55
2021/12/26 04:14:34;;;;;;;8.43;6.05;;;2.90;99.90;;;;;;5113596;28;20518;-54
2021/12/26 04:17:00;;;;;;;9.35;6.18;;;2.90;99.90;;;;;;5113720;28;20200;-52
2021/12/26 04:19:25;;;;;;;7.75;5.85;;;2.90;99.90;;;;;;5113752;28;20288;-53
2021/12/26 04:21:51;;;;;;;9.70;6.72;;;2.80;99.90;;;;;;5113484;28;20173;-54
2021/12/26 04:24:17;;;;;;;7.68;5.65;;;2.80;99.90;;;;;;5113083;28;20244;-54
2021/12/26 04:26:42;;;;;;;11.00;6.32;;;2.90;99.90;;;;;;5113464;28;20188;-53
2021/12/26 04:29:09;;;;;;;7.68;6.40;;;2.80;99.90;;;;;;5113523;28;20199;-53
2021/12/26 04:31:35;;;;;;;9.93;6.05;;;2.90;99.90;;;;;;5113653;28;20531;-54
2021/12/26 04:34:00;;;;;;;8.73;5.43;;;2.80;99.90;;;;;;5113355;28;20636;-53
2021/12/26 04:36:26;;;;;;;8.07;5.95;;;2.80;99.90;;;;;;5113588;28;20178;-55
2021/12/26 04:38:51;;;;;;;7.57;5.68;;;2.80;99.90;;;;;;5113171;28;20664;-55
2021/12/26 04:41:17;;;;;;;10.30;6.45;;;2.80;99.90;;;;;;5113133;28;20639;-54
2021/12/26 04:43:43;;;;;;;8.00;5.55;;;2.90;99.90;;;;;;5113183;28;20264;-54
2021/12/26 04:46:09;;;;;;;10.00;6.80;;;2.80;99.90;;;;;;5113057;28;20165;-55
2021/12/26 04:48:36;;;;;;;7.38;6.55;;;2.90;99.90;;;;;;5110734;28;20164;-53
2021/12/26 04:51:02;;;;;;;9.63;6.13;;;2.80;99.90;;;;;;5104941;28;20177;-52
2021/12/26 04:53:28;;;;;;;8.50;6.20;;;2.80;99.90;;;;;;5092770;28;20700;-53
2021/12/26 04:55:53;;;;;;;10.20;7.18;;;2.80;99.90;;;;;;5092659;28;20303;-53
2021/12/26 04:58:19;;;;;;;8.32;6.15;;;2.80;99.90;;;;;;5112633;28;20164;-53
2021/12/26 05:00:45;;;;;;;10.07;6.85;;;2.70;99.90;;;;;;5099348;28;20294;-52
2021/12/26 05:03:10;;;;;;;9.63;6.72;;;2.80;99.90;;;;;;5112345;28;20183;-53
2021/12/26 05:05:40;;;;;;;8.05;5.95;;;2.90;99.90;;;;;;5104815;28;20170;-52
2021/12/26 05:08:06;;;;;;;11.13;6.90;;;2.80;99.90;;;;;;5092574;28;20229;-51
2021/12/26 05:10:32;;;;;;;9.88;6.68;;;2.80;99.90;;;;;;5095088;28;20749;-52
2021/12/26 05:13:00;;;;;;;11.75;8.27;;;2.80;99.90;;;;;;5101474;28;20177;-52
2021/12/26 05:15:27;;;;;;;10.75;7.03;;;2.80;99.90;;;;;;5092447;28;20172;-51
2021/12/26 05:17:54;;;;;;;9.00;6.93;;;2.70;99.90;;;;;;5110533;28;20173;-52
2021/12/26 05:20:21;;;;;;;9.00;6.45;;;2.80;99.90;;;;;;5112376;28;20245;-52
2021/12/26 05:22:49;;;;;;;8.25;7.13;;;2.70;99.90;;;;;;5112321;28;20218;-52
2021/12/26 05:25:16;;;;;;;9.32;6.40;;;2.70;99.90;;;;;;5112364;28;20165;-51
2021/12/26 05:27:42;;;;;;;9.13;6.75;;;2.80;99.90;;;;;;5112343;28;20165;-52
2021/12/26 05:30:10;;;;;;;8.55;6.25;;;2.70;99.90;;;;;;5093072;28;20204;-52
2021/12/26 05:32:36;;;;;;;8.75;6.57;;;2.70;99.90;;;;;;5091915;28;20255;-53
2021/12/26 05:35:03;;;;;;;9.57;6.97;;;2.60;99.90;;;;;;5091787;28;20193;-53
2021/12/26 05:37:29;;;;;;;8.63;6.43;;;2.60;99.90;;;;;;5092317;28;20204;-53
2021/12/26 05:39:55;;;;;;;11.93;6.78;;;2.60;99.90;;;;;;5095510;28;20601;-52
2021/12/26 05:42:21;;;;;;;9.95;7.03;;;2.60;99.90;;;;;;5103410;28;20168;-53
2021/12/26 05:44:48;;;;;;;10.98;6.72;;;2.60;99.90;;;;;;5111913;28;20168;-51
2021/12/26 05:47:13;;;;;;;11.93;6.55;;;2.60;99.90;;;;;;5101060;28;20266;-52
2021/12/26 05:49:40;;;;;;;10.88;6.43;;;2.70;99.90;;;;;;5096086;28;20660;-51
2021/12/26 05:52:06;;;;;;;10.88;7.07;;;2.80;99.90;;;;;;5110149;28;20169;-52
2021/12/26 05:54:32;;;;;;;10.98;7.55;;;2.70;99.90;;;;;;5093290;28;20174;-52
2021/12/26 05:56:58;;;;;;;11.35;7.60;;;2.70;99.90;;;;;;5104339;28;20178;-51
2021/12/26 05:59:23;;;;;;;10.15;7.88;;;2.70;99.90;;;;;;5091520;28;20734;-54
2021/12/26 06:01:49;;;;;;;10.63;7.07;;;2.70;99.90;;;;;;5100303;28;20168;-53
2021/12/26 06:04:15;;;;;;;11.45;7.93;;;2.70;99.90;;;;;;5111960;28;20179;-52
2021/12/26 06:06:40;;;;;;;10.95;7.57;;;2.70;99.90;;;;;;5111752;28;20765;-52
2021/12/26 06:09:06;;;;;;;11.00;8.13;;;2.80;99.90;;;;;;5098474;28;20575;-52
2021/12/26 06:11:33;;;;;;;10.93;6.97;;;2.70;99.90;;;;;;5101988;28;20579;-52
2021/12/26 06:13:58;;;;;;;11.98;7.93;;;2.60;99.90;;;;;;5091342;28;20183;-53
2021/12/26 06:16:24;;;;;;;11.50;6.97;;;2.70;99.90;;;;;;5094124;28;20629;-52
2021/12/26 06:18:50;;;;;;;11.48;8.13;;;2.60;99.90;;;;;;5111649;28;20201;-52
2021/12/26 06:21:15;;;;;;;10.65;7.72;;;2.60;99.90;;;;;;5109702;28;20181;-52
2021/12/26 06:23:41;;;;;;;10.68;7.78;;;2.70;99.90;;;;;;5111576;28;20171;-52
2021/12/26 06:26:06;;;;;;;14.55;9.40;;;1.60;99.90;;;;;;5102366;28;20653;-52
2021/12/26 06:28:32;;;;;;;12.52;8.00;;;2.70;99.90;;;;;;5109828;28;20251;-52
2021/12/26 06:30:57;;;;;;;11.57;8.15;;;2.80;99.90;;;;;;5102513;28;20653;-53
2021/12/26 06:33:23;;;;;;;12.77;8.90;;;2.80;99.90;;;;;;5091247;28;20187;-52
2021/12/26 06:35:50;;;;;;;11.30;7.93;;;2.80;99.90;;;;;;5090810;28;20205;-52
2021/12/26 06:38:16;;;;;;;10.52;7.47;;;2.70;99.90;;;;;;5107161;28;20164;-53
2021/12/26 06:40:41;;;;;;;11.70;7.97;;;2.70;99.90;;;;;;5107722;28;20212;-53
2021/12/26 06:43:08;;;;;;;45.85;29.42;;;2.70;99.90;;;;;;5101770;28;20176;-53
2021/12/26 06:45:33;;;;;;;15.85;10.05;;;2.70;99.90;;;;;;5111497;28;20165;-52
2021/12/26 06:48:02;;;;;;;10.50;7.43;;;2.70;99.90;;;;;;5114382;28;20222;-53
2021/12/26 06:50:28;;;;;;;14.30;8.48;;;2.80;99.90;;;;;;5115144;28;20207;-52
2021/12/26 06:52:54;;;;;;;12.98;8.70;;;2.70;99.90;;;;;;5113780;28;20297;-53
2021/12/26 06:55:20;;;;;;;12.35;9.13;;;2.80;99.90;;;;;;5114834;28;20193;-52
2021/12/26 06:57:46;;;;;;;10.85;7.90;;;2.80;99.90;;;;;;5095980;28;20218;-53
2021/12/26 07:00:15;;;;;;;11.05;8.70;;;2.70;99.90;;;;;;5095522;28;20229;-52
2021/12/26 07:02:41;;;;;;;11.85;8.20;;;2.80;99.90;;;;;;5101925;28;20211;-53
2021/12/26 07:05:07;;;;;;;11.13;8.27;;;2.80;99.90;;;;;;5107855;28;20193;-53
2021/12/26 07:07:33;;;;;;;10.95;7.85;;;2.80;99.90;;;;;;5084756;28;20695;-52
2021/12/26 07:09:59;;;;;;;11.50;8.20;;;2.80;99.90;;;;;;5115029;28;20193;-53
2021/12/26 07:12:24;;;;;;;13.52;8.65;;;2.80;99.90;;;;;;5111842;28;20177;-54
2021/12/26 07:14:50;;;;;;;12.68;8.07;;;2.90;99.90;;;;;;5094381;28;20658;-54
2021/12/26 07:17:15;;;;;;;13.05;8.07;;;2.90;99.90;;;;;;5094307;28;20169;-54
2021/12/26 07:19:41;;;;;;;12.80;8.65;;;2.80;99.90;;;;;;5104603;28;20876;-56
2021/12/26 07:22:08;;;;;;;12.57;8.32;;;2.80;99.90;;;;;;5095338;28;20633;-52
2021/12/26 07:24:35;;;;;;;11.80;8.65;;;2.80;99.90;;;;;;5103295;28;20644;-51
2021/12/26 07:27:00;;;;;;;12.02;8.43;;;2.80;99.90;;;;;;5105234;28;20179;-53
2021/12/26 07:29:26;;;;;;;11.07;7.88;;;2.90;99.90;;;;;;5094277;28;20173;-54
2021/12/26 07:31:51;;;;;;;12.27;8.43;;;2.70;99.90;;;;;;5107263;28;20169;-53
2021/12/26 07:34:17;;;;;;;13.23;8.82;;;2.80;99.90;;;;;;5096029;28;20173;-53
2021/12/26 07:36:43;;;;;;;12.20;7.45;;;2.80;99.90;;;;;;5102679;28;20640;-54
2021/12/26 07:39:08;;;;;;;12.70;8.50;;;2.70;99.90;;;;;;5114183;28;20682;-54
2021/12/26 07:41:34;;;;;;;15.27;9.00;;;2.80;99.90;;;;;;5096867;28;20181;-53
2021/12/26 07:44:00;;;;;;;16.00;9.40;;;2.90;99.90;;;;;;5096916;28;20177;-54
2021/12/26 07:46:25;;;;;;;12.82;8.75;;;2.90;99.90;;;;;;5093756;28;20205;-53
2021/12/26 07:48:51;;;;;;;13.88;8.20;;;2.80;99.90;;;;;;5093938;28;20177;-53
2021/12/26 07:51:19;;;;;;;14.82;9.07;;;2.80;99.90;;;;;;5094775;28;20609;-54
2021/12/26 07:53:46;;;;;;;13.20;8.35;;;2.90;99.90;;;;;;5103450;28;20181;-54
2021/12/26 07:56:13;;;;;;;13.23;8.90;;;2.80;99.90;;;;;;5108121;28;20181;-54
2021/12/26 07:58:39;;;;;;;13.27;9.25;;;2.90;99.90;;;;;;5092250;28;20527;-53
2021/12/26 08:01:04;;;;;;;14.45;9.43;;;2.90;99.90;;;;;;5098004;28;20187;-53
2021/12/26 08:03:32;;;;;;;13.93;9.45;;;2.90;99.90;;;;;;5101635;28;20175;-54
2021/12/26 08:05:58;;;;;;;13.75;8.77;;;2.90;99.90;;;;;;5093955;28;20177;-54
2021/12/26 08:08:24;;;;;;;12.32;8.00;;;2.90;99.90;;;;;;5100640;28;20164;-53
2021/12/26 08:10:49;;;;;;;13.57;9.43;;;2.90;99.90;;;;;;5111855;28;20213;-53
2021/12/26 08:13:15;;;;;;;13.75;9.35;;;2.90;99.90;;;;;;5108394;28;20203;-53
2021/12/26 08:15:40;;;;;;;13.18;8.43;;;2.90;99.90;;;;;;5100484;28;20176;-52
2021/12/26 08:18:06;;;;;;;11.43;8.73;;;2.90;99.90;;;;;;5111103;28;20184;-54
2021/12/26 08:20:31;;;;;;;11.85;9.13;;;2.90;99.90;;;;;;5113812;28;20277;-53
2021/12/26 08:22:57;;;;;;;12.40;8.35;;;3.00;99.90;;;;;;5113403;28;20165;-54
2021/12/26 08:25:24;;;;;;;12.90;8.60;;;3.00;99.90;;;;;;5095811;28;20196;-54
2021/12/26 08:27:50;;;;;;;14.30;9.38;;;3.00;99.90;;;;;;5113780;28;20169;-53
2021/12/26 08:30:15;;;;;;;13.32;8.52;;;3.00;99.90;;;;;;5113497;28;20167;-53
2021/12/26 08:32:42;;;;;;;14.07;9.48;;;3.00;99.90;;;;;;5113783;28;20156;-53
2021/12/26 08:35:08;;;;;;;14.55;9.40;;;3.10;99.90;;;;;;5113775;28;20187;-53
2021/12/26 08:37:37;;;;;;;13.20;9.43;;;3.00;99.90;;;;;;5113787;28;20169;-53
2021/12/26 08:40:03;;;;;;;12.82;9.63;;;3.10;99.90;;;;;;5113792;28;20218;-53
2021/12/26 08:42:28;;;;;;;13.15;8.82;;;3.10;99.90;;;;;;5113938;28;20630;-52
2021/12/26 08:44:56;;;;;;;12.85;8.82;;;3.20;99.90;;;;;;5113394;28;20176;-52
2021/12/26 08:47:21;;;;;;;13.00;8.23;;;3.10;99.90;;;;;;5113501;28;20153;-53
2021/12/26 08:49:47;;;;;;;13.32;9.15;;;3.10;99.90;;;;;;5113398;28;20172;-53
2021/12/26 08:52:13;;;;;;;13.45;8.10;;;3.10;99.90;;;;;;5113371;28;20156;-54
2021/12/26 08:54:39;;;;;;;12.18;8.93;;;3.10;99.90;;;;;;5113009;28;20255;-53
2021/12/26 08:57:07;;;;;;;13.70;8.68;;;3.20;99.90;;;;;;5105850;28;20165;-53
2021/12/26 08:59:32;;;;;;;15.40;8.73;;;3.20;99.90;;;;;;5099659;28;20197;-53
2021/12/26 09:02:02;;;;;;;11.07;8.00;;;3.20;99.90;;;;;;5074765;28;20165;-53
2021/12/26 09:04:28;;;;;;;13.25;8.68;;;3.30;99.90;;;;;;5107542;28;20652;-53
2021/12/26 09:06:53;;;;;;;12.05;8.75;;;3.30;99.90;;;;;;5112806;28;20233;-53
2021/12/26 09:09:19;;;;;;;13.23;9.10;;;3.30;99.90;;;;;;5094919;28;20252;-53
2021/12/26 09:11:44;;;;;;;11.93;8.20;;;3.30;99.90;;;;;;5093570;28;20217;-53
2021/12/26 09:14:10;;;;;;;14.35;8.40;;;3.40;99.90;;;;;;5092327;28;20571;-53
2021/12/26 09:16:35;;;;;;;11.15;8.02;;;3.30;99.90;;;;;;5093510;28;20189;-53
2021/12/26 09:19:03;;;;;;;13.25;9.98;;;3.30;99.90;;;;;;5093371;28;20212;-53
2021/12/26 09:21:29;;;;;;;11.40;8.18;;;3.30;99.90;;;;;;5092690;28;20165;-52
2021/12/26 09:23:54;;;;;;;11.35;8.40;;;3.40;99.90;;;;;;5096271;28;20599;-53
2021/12/26 09:26:20;;;;;;;13.95;8.77;;;3.40;99.90;;;;;;5092392;28;20173;-52
2021/12/26 09:28:45;;;;;;;17.17;11.20;;;3.40;99.90;;;;;;5110619;28;20168;-53
2021/12/26 09:31:11;;;;;;;28.08;18.75;;;3.40;99.90;;;;;;5112565;28;20225;-53
2021/12/26 09:33:36;;;;;;;23.70;16.95;;;3.50;99.90;;;;;;5110571;28;20175;-53
2021/12/26 09:36:02;;;;;;;13.40;9.35;;;3.50;99.90;;;;;;5112543;28;20176;-53
2021/12/26 09:38:28;;;;;;;19.30;12.32;;;3.40;99.90;;;;;;5097599;28;20172;-53
2021/12/26 09:40:55;;;;;;;11.82;8.68;;;3.50;99.90;;;;;;5092901;28;20209;-52
2021/12/26 09:43:20;;;;;;;12.88;9.15;;;3.50;99.90;;;;;;5102666;28;20172;-53
2021/12/26 09:45:46;;;;;;;11.77;8.13;;;3.50;99.90;;;;;;5099174;28;20255;-53
2021/12/26 09:48:11;;;;;;;14.27;9.10;;;3.50;99.90;;;;;;5101924;28;20197;-53
2021/12/26 09:50:37;;;;;;;13.85;9.45;;;3.50;99.90;;;;;;5110921;28;20173;-53
2021/12/26 09:53:02;;;;;;;12.60;9.07;;;3.60;99.90;;;;;;5110608;28;20176;-53
2021/12/26 09:55:29;;;;;;;12.23;8.95;;;3.70;99.90;;;;;;5104852;28;20173;-53
2021/12/26 09:57:56;;;;;;;15.93;10.25;;;3.60;99.90;;;;;;5091814;28;20660;-53
2021/12/26 10:00:32;;;;;;;14.75;9.45;;;3.60;99.90;;;;;;5092843;28;20197;-53
2021/12/26 10:03:20;;;;;;;17.58;10.23;;;3.50;99.90;;;;;;5091574;28;20531;-52
2021/12/26 10:06:10;;;;;;;14.77;9.45;;;3.60;99.90;;;;;;5092337;28;20176;-53
2021/12/26 10:08:51;;;;;;;14.43;9.65;;;3.70;99.90;;;;;;5092821;28;20169;-52
2021/12/26 10:11:18;;;;;;;20.15;10.25;;;3.70;99.90;;;;;;5091663;28;20688;-53
2021/12/26 10:13:47;;;;;;;12.20;9.05;;;3.70;99.90;;;;;;5102815;28;20603;-53
2021/12/26 10:16:16;;;;;;;18.08;10.68;;;3.70;99.90;;;;;;5112169;28;20743;-53
2021/12/26 10:18:43;;;;;;;20.33;10.82;;;3.60;99.90;;;;;;5098426;28;20181;-53
2021/12/26 10:21:26;;;;;;;14.50;10.40;;;3.60;99.90;;;;;;5091979;28;20555;-53
2021/12/26 10:23:53;;;;;;;15.75;10.82;;;3.50;99.90;;;;;;5096930;28;20260;-53
2021/12/26 10:26:28;;;;;;;16.15;10.30;;;3.60;99.90;;;;;;5105637;28;20204;-53
2021/12/26 10:29:17;;;;;;;15.05;10.63;;;3.60;99.90;;;;;;5115195;28;20152;-53
2021/12/26 10:31:46;;;;;;;13.30;10.10;;;3.60;99.90;;;;;;5111909;28;20200;-53
2021/12/26 10:34:31;;;;;;;14.10;8.75;;;3.70;99.90;;;;;;5112661;28;20218;-53
2021/12/26 10:36:59;;;;;;;12.88;9.23;;;3.60;99.90;;;;;;5096569;28;20198;-53
2021/12/26 10:39:31;;;;;;;13.23;10.05;;;3.80;99.90;;;;;;5095399;28;20261;-53
2021/12/26 10:42:01;;;;;;;17.50;11.73;;;3.80;99.90;;;;;;5096671;28;22397;-54
2021/12/26 10:44:32;;;;;;;14.38;10.80;;;3.70;99.90;;;;;;5101269;28;20325;-54
2021/12/26 10:47:05;;;;;;;21.00;14.15;;;3.80;99.90;;;;;;5113930;28;20167;-53
2021/12/26 10:49:48;;;;;;;17.10;11.00;;;3.90;99.90;;;;;;5113533;28;20183;-52
2021/12/26 10:52:23;;;;;;;37.28;22.95;;;3.90;99.90;;;;;;5113528;28;20314;-53
2021/12/26 10:54:56;;;;;;;125.38;69.15;;;3.90;99.90;;;;;;5106130;28;20658;-54
2021/12/26 10:57:38;;;;;;;24.48;17.15;;;3.90;99.90;;;;;;5101890;28;20177;-53
2021/12/26 11:00:14;;;;;;;21.70;13.93;;;4.10;99.90;;;;;;5108756;28;20227;-53
2021/12/26 11:03:00;;;;;;;17.88;12.15;;;4.10;99.90;;;;;;5113170;28;20171;-53
2021/12/26 11:05:44;;;;;;;18.35;11.60;;;4.00;99.90;;;;;;5110641;28;20644;-53
2021/12/26 11:08:17;;;;;;;23.75;18.42;;;4.10;99.90;;;;;;5094779;28;20625;-53
2021/12/26 11:10:46;;;;;;;18.83;13.70;;;4.30;99.90;;;;;;5095743;28;20213;-53
2021/12/26 11:13:26;;;;;;;26.67;20.77;;;4.30;99.90;;;;;;5102891;28;20189;-53
2021/12/26 11:15:58;;;;;;;17.83;13.50;;;4.20;99.90;;;;;;5107270;28;20179;-53
2021/12/26 11:18:25;;;;;;;25.98;17.73;;;4.20;99.90;;;;;;5091894;28;20164;-53
2021/12/26 11:20:53;;;;;;;19.33;12.90;;;4.20;99.90;;;;;;5113063;28;20307;-52
2021/12/26 11:23:25;;;;;;;16.42;11.88;;;4.30;99.90;;;;;;5112103;28;20250;-52
2021/12/26 11:25:56;;;;;;;17.42;11.73;;;4.40;99.90;;;;;;5094436;28;20236;-52
2021/12/26 11:28:28;;;;;;;42.90;24.58;;;4.40;99.90;;;;;;5102799;28;20229;-52
2021/12/26 11:31:13;;;;;;;37.63;20.90;;;4.40;99.90;;;;;;5105021;28;20176;-53
2021/12/26 11:33:39;;;;;;;52.60;27.75;;;4.40;99.90;;;;;;5109727;28;20192;-53
2021/12/26 11:36:09;;;;;;;38.92;22.42;;;4.30;99.90;;;;;;5112753;28;20176;-53
2021/12/26 11:38:36;;;;;;;14.73;12.02;;;4.50;99.90;;;;;;5102259;28;20181;-53
2021/12/26 11:41:05;;;;;;;20.13;16.00;;;4.60;99.90;;;;;;5094049;28;20209;-53
2021/12/26 11:43:58;;;;;;;16.08;12.75;;;4.60;99.90;;;;;;5113358;28;20173;-53
2021/12/26 11:47:18;;;;;;;21.73;17.33;;;4.70;99.90;;;;;;5094130;28;20165;-53
2021/12/26 11:50:17;;;;;;;17.98;11.95;;;4.70;99.90;;;;;;4993153;28;20180;-53
2021/12/26 11:52:59;;;;;;;14.73;10.60;;;4.60;99.90;;;;;;5093584;28;20790;-53
2021/12/26 11:55:38;;;;;;;16.83;12.23;;;4.70;99.90;;;;;;5098347;28;20569;-53
2021/12/26 11:58:50;;;;;;;16.48;10.18;;;4.80;99.90;;;;;;5110422;28;20236;-53
2021/12/26 12:01:19;;;;;;;14.65;10.23;;;4.90;99.90;;;;;;5022345;28;20241;-53
2021/12/26 12:03:45;;;;;;;15.63;11.48;;;4.70;99.90;;;;;;5094082;28;20173;-53
2021/12/26 12:06:26;;;;;;;17.83;12.30;;;4.90;99.90;;;;;;5093779;28;20167;-52
2021/12/26 12:08:53;;;;;;;19.67;12.75;;;4.80;99.90;;;;;;5103343;28;20173;-51
2021/12/26 12:11:18;;;;;;;13.13;10.18;;;4.80;99.90;;;;;;5093595;28;20228;-52
2021/12/26 12:13:47;;;;;;;12.68;9.73;;;4.80;99.90;;;;;;5094553;28;20187;-52
2021/12/26 12:16:33;;;;;;;19.10;12.10;;;4.80;99.90;;;;;;5104902;28;20173;-52
2021/12/26 12:19:10;;;;;;;15.55;11.35;;;4.80;99.90;;;;;;5113510;28;20551;-52
2021/12/26 12:21:45;;;;;;;14.82;10.02;;;4.80;99.90;;;;;;5104556;28;20176;-53
2021/12/26 12:24:26;;;;;;;13.63;9.40;;;4.80;99.90;;;;;;5112854;28;20164;-51
2021/12/26 12:26:53;;;;;;;13.45;9.65;;;4.80;99.90;;;;;;5113118;28;20179;-52
2021/12/26 12:29:21;;;;;;;12.35;9.05;;;4.80;99.90;;;;;;5113271;28;20173;-52
2021/12/26 12:31:47;;;;;;;13.43;9.65;;;4.80;99.90;;;;;;5113724;28;20157;-52
2021/12/26 12:34:15;;;;;;;12.82;9.32;;;4.70;99.90;;;;;;5112889;28;20168;-52
2021/12/26 12:36:43;;;;;;;13.32;8.88;;;4.70;99.90;;;;;;5113780;28;20188;-52
2021/12/26 12:39:17;;;;;;;12.57;9.57;;;4.80;99.90;;;;;;5113336;28;20283;-52
2021/12/26 12:41:54;;;;;;;13.05;9.48;;;4.80;99.90;;;;;;5113696;28;20169;-53
2021/12/26 12:44:30;;;;;;;13.25;9.50;;;4.80;99.90;;;;;;5112138;28;20156;-52
2021/12/26 12:46:59;;;;;;;17.17;11.25;;;4.70;99.90;;;;;;5113463;28;20174;-52
2021/12/26 12:49:47;;;;;;;19.13;11.60;;;4.70;99.90;;;;;;5113396;28;20168;-52
2021/12/26 12:52:39;;;;;;;13.20;9.82;;;4.70;99.90;;;;;;5113256;28;20161;-52
2021/12/26 12:55:08;;;;;;;12.77;9.18;;;4.70;99.90;;;;;;5112747;28;20165;-52
2021/12/26 12:57:37;;;;;;;12.48;9.68;;;4.80;99.90;;;;;;5112952;28;20218;-52